Startpagina
METAR-TAF:

METAR-TAF

Vliegvelden :

Dübendorf, Zwitserland

breedte: 47-23-55N, lengte: 8-38-53E, hoogte: 448 m

Actueel weer

Dit bericht is 38 minuten geleden gemaakt, om 02:50 UTC
Weinig wind
Temperatuur -3°C
Vochtigheid 93%
Druk 1026 hPa
Zicht: 6000 m
Verspreide wolken op 300 ft
Gebroken wolken op 600 ft

METAR: LSMD 240250Z AUTO 00000KT 6000NDV SCT003 BKN006 M03/M04 Q1026 RMK

Tijdstip: 04:28 (03:28 UTC)


TAF: ontbreekt

Waarnemingen en weersverwachtingen van meer dan 4000 vliegvelden (METAR en TAF).

De beschikbare stations zijn de gele en rode punten op de kaart.

Ga met uw muis naar het station om de naam te zien.

Klik dan om waarnemingen en weersverwachtingen te zien.

kaart wijzigen: klik op de groene knoppen met een zwart kruis om in te zoomen, op de groene knop met een streepje om uit te zoomen of op de groene pijlen voor aangrenzende kaarten.


METAR-TAF: